sensor_id;sensor_type;location;lat;lon;timestamp;P1;durP1;ratioP1;P2;durP2;ratioP2
43311;SDS011;30041;48.300;16.352;2023-02-28T00:01:41;1.42;;;0.82;;
43311;SDS011;30041;48.300;16.352;2023-02-28T00:04:07;1.42;;;1.00;;
43311;SDS011;30041;48.300;16.352;2023-02-28T00:06:33;1.10;;;0.80;;
43311;SDS011;30041;48.300;16.352;2023-02-28T00:08:58;1.38;;;1.00;;
43311;SDS011;30041;48.300;16.352;2023-02-28T00:11:24;1.60;;;0.98;;
43311;SDS011;30041;48.300;16.352;2023-02-28T00:13:49;1.77;;;0.93;;
43311;SDS011;30041;48.300;16.352;2023-02-28T00:16:16;1.58;;;1.10;;
43311;SDS011;30041;48.300;16.352;2023-02-28T00:18:44;1.42;;;0.80;;
43311;SDS011;30041;48.300;16.352;2023-02-28T00:21:09;0.88;;;0.80;;
43311;SDS011;30041;48.300;16.352;2023-02-28T00:23:35;0.90;;;0.70;;
43311;SDS011;30041;48.300;16.352;2023-02-28T00:26:01;1.20;;;0.90;;
43311;SDS011;30041;48.300;16.352;2023-02-28T00:28:26;1.52;;;1.05;;
43311;SDS011;30041;48.300;16.352;2023-02-28T00:30:52;1.70;;;0.90;;
43311;SDS011;30041;48.300;16.352;2023-02-28T00:33:18;1.42;;;0.80;;
43311;SDS011;30041;48.300;16.352;2023-02-28T00:35:43;1.30;;;0.90;;
43311;SDS011;30041;48.300;16.352;2023-02-28T00:38:09;1.25;;;0.77;;
43311;SDS011;30041;48.300;16.352;2023-02-28T00:40:34;0.90;;;0.80;;
43311;SDS011;30041;48.300;16.352;2023-02-28T00:43:00;1.23;;;0.80;;
43311;SDS011;30041;48.300;16.352;2023-02-28T00:45:26;1.27;;;0.80;;
43311;SDS011;30041;48.300;16.352;2023-02-28T00:47:51;0.88;;;0.60;;
43311;SDS011;30041;48.300;16.352;2023-02-28T00:50:17;1.00;;;0.60;;
43311;SDS011;30041;48.300;16.352;2023-02-28T00:52:46;1.17;;;0.75;;
43311;SDS011;30041;48.300;16.352;2023-02-28T00:55:12;0.93;;;0.55;;
43311;SDS011;30041;48.300;16.352;2023-02-28T00:57:38;1.20;;;0.80;;
43311;SDS011;30041;48.300;16.352;2023-02-28T01:00:04;0.90;;;0.70;;
43311;SDS011;30041;48.300;16.352;2023-02-28T01:02:30;0.93;;;0.60;;
43311;SDS011;30041;48.300;16.352;2023-02-28T01:04:56;1.05;;;0.70;;
43311;SDS011;30041;48.300;16.352;2023-02-28T01:07:21;1.00;;;0.60;;
43311;SDS011;30041;48.300;16.352;2023-02-28T01:09:47;1.25;;;0.88;;
43311;SDS011;30041;48.300;16.352;2023-02-28T01:12:13;1.23;;;0.60;;
43311;SDS011;30041;48.300;16.352;2023-02-28T01:14:38;0.98;;;0.65;;
43311;SDS011;30041;48.300;16.352;2023-02-28T01:17:04;0.90;;;0.60;;
43311;SDS011;30041;48.300;16.352;2023-02-28T01:19:29;1.33;;;0.73;;
43311;SDS011;30041;48.300;16.352;2023-02-28T01:21:55;1.38;;;0.88;;
43311;SDS011;30041;48.300;16.352;2023-02-28T01:24:21;1.00;;;0.70;;
43311;SDS011;30041;48.300;16.352;2023-02-28T01:26:46;1.10;;;0.70;;
43311;SDS011;30041;48.300;16.352;2023-02-28T01:29:12;1.00;;;0.70;;
43311;SDS011;30041;48.300;16.352;2023-02-28T01:31:38;1.10;;;0.82;;
43311;SDS011;30041;48.300;16.352;2023-02-28T01:34:03;1.10;;;0.70;;
43311;SDS011;30041;48.300;16.352;2023-02-28T01:36:29;0.90;;;0.60;;
43311;SDS011;30041;48.300;16.352;2023-02-28T01:38:55;1.02;;;0.68;;
43311;SDS011;30041;48.300;16.352;2023-02-28T01:41:24;0.93;;;0.70;;
43311;SDS011;30041;48.300;16.352;2023-02-28T01:43:59;0.82;;;0.60;;
43311;SDS011;30041;48.300;16.352;2023-02-28T01:46:27;1.20;;;0.77;;
43311;SDS011;30041;48.300;16.352;2023-02-28T01:51:34;1.10;;;0.60;;
43311;SDS011;30041;48.300;16.352;2023-02-28T01:54:09;0.90;;;0.60;;
43311;SDS011;30041;48.300;16.352;2023-02-28T01:56:37;1.00;;;0.70;;
43311;SDS011;30041;48.300;16.352;2023-02-28T01:59:03;0.85;;;0.60;;
43311;SDS011;30041;48.300;16.352;2023-02-28T02:01:30;1.02;;;0.77;;
43311;SDS011;30041;48.300;16.352;2023-02-28T02:03:57;0.70;;;0.50;;
43311;SDS011;30041;48.300;16.352;2023-02-28T02:06:43;0.98;;;0.70;;
43311;SDS011;30041;48.300;16.352;2023-02-28T02:09:11;1.20;;;0.68;;
43311;SDS011;30041;48.300;16.352;2023-02-28T02:11:37;1.10;;;0.70;;
43311;SDS011;30041;48.300;16.352;2023-02-28T02:14:23;0.90;;;0.60;;
43311;SDS011;30041;48.300;16.352;2023-02-28T02:19:54;0.63;;;0.52;;
43311;SDS011;30041;48.300;16.352;2023-02-28T02:34:13;0.75;;;0.50;;
43311;SDS011;30041;48.300;16.352;2023-02-28T02:36:58;0.85;;;0.50;;
43311;SDS011;30041;48.300;16.352;2023-02-28T02:39:31;0.70;;;0.50;;
43311;SDS011;30041;48.300;16.352;2023-02-28T02:42:15;0.82;;;0.57;;
43311;SDS011;30041;48.300;16.352;2023-02-28T02:45:08;0.63;;;0.50;;
43311;SDS011;30041;48.300;16.352;2023-02-28T02:47:37;0.47;;;0.35;;
43311;SDS011;30041;48.300;16.352;2023-02-28T02:50:05;0.60;;;0.50;;
43311;SDS011;30041;48.300;16.352;2023-02-28T02:52:38;0.60;;;0.50;;
43311;SDS011;30041;48.300;16.352;2023-02-28T02:55:08;0.98;;;0.50;;
43311;SDS011;30041;48.300;16.352;2023-02-28T02:57:58;0.85;;;0.52;;
43311;SDS011;30041;48.300;16.352;2023-02-28T03:00:26;0.70;;;0.50;;
43311;SDS011;30041;48.300;16.352;2023-02-28T03:02:57;0.95;;;0.50;;
43311;SDS011;30041;48.300;16.352;2023-02-28T03:05:28;0.70;;;0.40;;
43311;SDS011;30041;48.300;16.352;2023-02-28T03:10:29;0.60;;;0.60;;
43311;SDS011;30041;48.300;16.352;2023-02-28T03:13:00;0.88;;;0.50;;
43311;SDS011;30041;48.300;16.352;2023-02-28T03:21:34;0.73;;;0.45;;
43311;SDS011;30041;48.300;16.352;2023-02-28T03:24:13;0.88;;;0.70;;
43311;SDS011;30041;48.300;16.352;2023-02-28T03:27:03;0.85;;;0.47;;
43311;SDS011;30041;48.300;16.352;2023-02-28T03:29:35;0.55;;;0.40;;
43311;SDS011;30041;48.300;16.352;2023-02-28T03:32:18;0.60;;;0.50;;
43311;SDS011;30041;48.300;16.352;2023-02-28T03:34:59;0.68;;;0.40;;
43311;SDS011;30041;48.300;16.352;2023-02-28T03:37:31;0.43;;;0.30;;
43311;SDS011;30041;48.300;16.352;2023-02-28T03:40:01;0.80;;;0.50;;
43311;SDS011;30041;48.300;16.352;2023-02-28T03:42:34;1.05;;;0.60;;
43311;SDS011;30041;48.300;16.352;2023-02-28T03:45:04;0.50;;;0.30;;
43311;SDS011;30041;48.300;16.352;2023-02-28T03:47:41;0.47;;;0.30;;
43311;SDS011;30041;48.300;16.352;2023-02-28T03:50:16;0.40;;;0.40;;
43311;SDS011;30041;48.300;16.352;2023-02-28T03:52:49;0.70;;;0.40;;
43311;SDS011;30041;48.300;16.352;2023-02-28T03:55:20;0.52;;;0.40;;
43311;SDS011;30041;48.300;16.352;2023-02-28T03:58:06;0.77;;;0.45;;
43311;SDS011;30041;48.300;16.352;2023-02-28T04:00:35;0.35;;;0.32;;
43311;SDS011;30041;48.300;16.352;2023-02-28T04:03:04;0.70;;;0.40;;
43311;SDS011;30041;48.300;16.352;2023-02-28T04:05:30;0.60;;;0.35;;
43311;SDS011;30041;48.300;16.352;2023-02-28T04:08:05;0.68;;;0.45;;
43311;SDS011;30041;48.300;16.352;2023-02-28T04:10:32;0.40;;;0.35;;
43311;SDS011;30041;48.300;16.352;2023-02-28T04:12:58;0.68;;;0.47;;
43311;SDS011;30041;48.300;16.352;2023-02-28T04:15:24;0.68;;;0.35;;
43311;SDS011;30041;48.300;16.352;2023-02-28T04:17:50;0.70;;;0.45;;
43311;SDS011;30041;48.300;16.352;2023-02-28T04:20:15;0.60;;;0.50;;
43311;SDS011;30041;48.300;16.352;2023-02-28T04:22:41;0.60;;;0.47;;
43311;SDS011;30041;48.300;16.352;2023-02-28T04:25:07;0.47;;;0.30;;
43311;SDS011;30041;48.300;16.352;2023-02-28T04:27:33;0.90;;;0.50;;
43311;SDS011;30041;48.300;16.352;2023-02-28T04:29:58;0.50;;;0.40;;
43311;SDS011;30041;48.300;16.352;2023-02-28T04:32:24;0.38;;;0.30;;
43311;SDS011;30041;48.300;16.352;2023-02-28T04:34:49;0.88;;;0.50;;
43311;SDS011;30041;48.300;16.352;2023-02-28T04:37:15;0.82;;;0.50;;
43311;SDS011;30041;48.300;16.352;2023-02-28T04:39:40;0.50;;;0.50;;
43311;SDS011;30041;48.300;16.352;2023-02-28T04:42:06;0.50;;;0.43;;
43311;SDS011;30041;48.300;16.352;2023-02-28T04:44:32;0.70;;;0.40;;
43311;SDS011;30041;48.300;16.352;2023-02-28T04:46:58;0.35;;;0.35;;
43311;SDS011;30041;48.300;16.352;2023-02-28T04:49:23;0.30;;;0.30;;
43311;SDS011;30041;48.300;16.352;2023-02-28T04:51:49;0.70;;;0.40;;
43311;SDS011;30041;48.300;16.352;2023-02-28T04:54:14;0.45;;;0.35;;
43311;SDS011;30041;48.300;16.352;2023-02-28T04:56:40;0.30;;;0.30;;
43311;SDS011;30041;48.300;16.352;2023-02-28T04:59:06;0.60;;;0.30;;
43311;SDS011;30041;48.300;16.352;2023-02-28T05:01:32;1.20;;;0.38;;
43311;SDS011;30041;48.300;16.352;2023-02-28T05:03:59;0.30;;;0.20;;
43311;SDS011;30041;48.300;16.352;2023-02-28T05:06:27;0.73;;;0.40;;
43311;SDS011;30041;48.300;16.352;2023-02-28T05:08:54;0.40;;;0.25;;
43311;SDS011;30041;48.300;16.352;2023-02-28T05:11:21;0.22;;;0.20;;
43311;SDS011;30041;48.300;16.352;2023-02-28T05:13:55;0.30;;;0.30;;
43311;SDS011;30041;48.300;16.352;2023-02-28T05:16:21;0.40;;;0.30;;
43311;SDS011;30041;48.300;16.352;2023-02-28T05:18:46;0.30;;;0.28;;
43311;SDS011;30041;48.300;16.352;2023-02-28T05:21:32;0.22;;;0.20;;
43311;SDS011;30041;48.300;16.352;2023-02-28T05:24:02;0.20;;;0.20;;
43311;SDS011;30041;48.300;16.352;2023-02-28T05:26:30;0.20;;;0.20;;
43311;SDS011;30041;48.300;16.352;2023-02-28T05:28:56;0.10;;;0.10;;
43311;SDS011;30041;48.300;16.352;2023-02-28T05:31:22;0.20;;;0.17;;
43311;SDS011;30041;48.300;16.352;2023-02-28T05:33:47;0.22;;;0.20;;
43311;SDS011;30041;48.300;16.352;2023-02-28T05:36:13;0.20;;;0.20;;
43311;SDS011;30041;48.300;16.352;2023-02-28T05:38:39;0.40;;;0.20;;
43311;SDS011;30041;48.300;16.352;2023-02-28T05:41:08;0.10;;;0.10;;
43311;SDS011;30041;48.300;16.352;2023-02-28T05:43:35;0.20;;;0.20;;
43311;SDS011;30041;48.300;16.352;2023-02-28T05:46:08;0.20;;;0.20;;
43311;SDS011;30041;48.300;16.352;2023-02-28T05:48:35;0.10;;;0.10;;
43311;SDS011;30041;48.300;16.352;2023-02-28T05:51:02;0.40;;;0.30;;
43311;SDS011;30041;48.300;16.352;2023-02-28T05:53:29;0.40;;;0.20;;
43311;SDS011;30041;48.300;16.352;2023-02-28T05:55:55;0.40;;;0.28;;
43311;SDS011;30041;48.300;16.352;2023-02-28T05:58:21;0.20;;;0.20;;
43311;SDS011;30041;48.300;16.352;2023-02-28T06:00:47;0.20;;;0.13;;
43311;SDS011;30041;48.300;16.352;2023-02-28T06:03:12;0.15;;;0.10;;
43311;SDS011;30041;48.300;16.352;2023-02-28T06:05:38;0.10;;;0.00;;
43311;SDS011;30041;48.300;16.352;2023-02-28T06:08:04;0.00;;;0.00;;
43311;SDS011;30041;48.300;16.352;2023-02-28T06:10:30;0.30;;;0.20;;
43311;SDS011;30041;48.300;16.352;2023-02-28T06:12:55;0.35;;;0.10;;
43311;SDS011;30041;48.300;16.352;2023-02-28T06:15:25;0.10;;;0.10;;
43311;SDS011;30041;48.300;16.352;2023-02-28T06:17:50;0.10;;;0.00;;
43311;SDS011;30041;48.300;16.352;2023-02-28T06:20:16;0.20;;;0.10;;
43311;SDS011;30041;48.300;16.352;2023-02-28T06:22:42;0.03;;;0.03;;
43311;SDS011;30041;48.300;16.352;2023-02-28T06:25:08;0.10;;;0.10;;
43311;SDS011;30041;48.300;16.352;2023-02-28T06:27:35;0.20;;;0.10;;
43311;SDS011;30041;48.300;16.352;2023-02-28T06:30:00;0.28;;;0.15;;
43311;SDS011;30041;48.300;16.352;2023-02-28T06:32:27;7.32;;;2.10;;
43311;SDS011;30041;48.300;16.352;2023-02-28T06:34:53;9.25;;;2.20;;
43311;SDS011;30041;48.300;16.352;2023-02-28T06:37:18;4.70;;;1.90;;
43311;SDS011;30041;48.300;16.352;2023-02-28T06:39:44;5.50;;;1.98;;
43311;SDS011;30041;48.300;16.352;2023-02-28T06:42:09;5.13;;;2.20;;
43311;SDS011;30041;48.300;16.352;2023-02-28T06:44:35;4.95;;;2.20;;
43311;SDS011;30041;48.300;16.352;2023-02-28T06:47:01;3.88;;;1.88;;
43311;SDS011;30041;48.300;16.352;2023-02-28T06:49:28;5.38;;;2.20;;
43311;SDS011;30041;48.300;16.352;2023-02-28T06:51:54;7.82;;;2.55;;
43311;SDS011;30041;48.300;16.352;2023-02-28T06:54:20;7.68;;;2.72;;
43311;SDS011;30041;48.300;16.352;2023-02-28T06:56:46;5.13;;;2.50;;
43311;SDS011;30041;48.300;16.352;2023-02-28T06:59:12;6.53;;;2.00;;
43311;SDS011;30041;48.300;16.352;2023-02-28T07:01:37;3.80;;;1.92;;
43311;SDS011;30041;48.300;16.352;2023-02-28T07:04:04;3.80;;;1.98;;
43311;SDS011;30041;48.300;16.352;2023-02-28T07:06:31;3.50;;;1.75;;
43311;SDS011;30041;48.300;16.352;2023-02-28T07:08:56;5.50;;;2.10;;
43311;SDS011;30041;48.300;16.352;2023-02-28T07:11:23;3.80;;;1.60;;
43311;SDS011;30041;48.300;16.352;2023-02-28T07:13:49;4.07;;;1.80;;
43311;SDS011;30041;48.300;16.352;2023-02-28T07:16:15;4.90;;;1.65;;
43311;SDS011;30041;48.300;16.352;2023-02-28T07:18:41;3.05;;;1.58;;
43311;SDS011;30041;48.300;16.352;2023-02-28T07:21:08;3.45;;;1.67;;
43311;SDS011;30041;48.300;16.352;2023-02-28T07:23:34;5.18;;;1.40;;
43311;SDS011;30041;48.300;16.352;2023-02-28T07:26:01;2.63;;;1.33;;
43311;SDS011;30041;48.300;16.352;2023-02-28T07:28:26;2.38;;;1.27;;
43311;SDS011;30041;48.300;16.352;2023-02-28T07:30:52;1.67;;;1.10;;
43311;SDS011;30041;48.300;16.352;2023-02-28T07:33:18;2.33;;;1.33;;
43311;SDS011;30041;48.300;16.352;2023-02-28T07:35:43;2.35;;;1.10;;
43311;SDS011;30041;48.300;16.352;2023-02-28T07:38:09;2.38;;;1.15;;
43311;SDS011;30041;48.300;16.352;2023-02-28T07:40:35;2.85;;;1.17;;
43311;SDS011;30041;48.300;16.352;2023-02-28T07:43:01;1.13;;;0.80;;
43311;SDS011;30041;48.300;16.352;2023-02-28T07:45:28;1.67;;;0.90;;
43311;SDS011;30041;48.300;16.352;2023-02-28T07:47:55;2.38;;;1.00;;
43311;SDS011;30041;48.300;16.352;2023-02-28T07:50:21;1.42;;;0.80;;
43311;SDS011;30041;48.300;16.352;2023-02-28T07:52:47;2.08;;;0.90;;
43311;SDS011;30041;48.300;16.352;2023-02-28T07:55:12;1.98;;;0.80;;
43311;SDS011;30041;48.300;16.352;2023-02-28T07:57:38;1.80;;;0.70;;
43311;SDS011;30041;48.300;16.352;2023-02-28T08:00:05;1.52;;;0.80;;
43311;SDS011;30041;48.300;16.352;2023-02-28T08:02:32;1.35;;;0.73;;
43311;SDS011;30041;48.300;16.352;2023-02-28T08:04:59;1.60;;;0.85;;
43311;SDS011;30041;48.300;16.352;2023-02-28T08:07:24;0.98;;;0.65;;
43311;SDS011;30041;48.300;16.352;2023-02-28T08:09:50;1.48;;;0.60;;
43311;SDS011;30041;48.300;16.352;2023-02-28T08:12:15;1.02;;;0.50;;
43311;SDS011;30041;48.300;16.352;2023-02-28T08:14:41;0.88;;;0.60;;
43311;SDS011;30041;48.300;16.352;2023-02-28T08:17:07;1.10;;;0.70;;
43311;SDS011;30041;48.300;16.352;2023-02-28T08:19:32;1.23;;;0.50;;
43311;SDS011;30041;48.300;16.352;2023-02-28T08:21:58;1.23;;;0.52;;
43311;SDS011;30041;48.300;16.352;2023-02-28T08:24:23;1.20;;;0.60;;
43311;SDS011;30041;48.300;16.352;2023-02-28T08:26:49;1.15;;;0.60;;
43311;SDS011;30041;48.300;16.352;2023-02-28T08:29:15;0.63;;;0.40;;
43311;SDS011;30041;48.300;16.352;2023-02-28T08:31:41;1.40;;;0.50;;
43311;SDS011;30041;48.300;16.352;2023-02-28T08:34:07;1.00;;;0.65;;
43311;SDS011;30041;48.300;16.352;2023-02-28T08:36:34;0.60;;;0.40;;
43311;SDS011;30041;48.300;16.352;2023-02-28T08:38:59;0.82;;;0.47;;
43311;SDS011;30041;48.300;16.352;2023-02-28T08:41:25;0.50;;;0.32;;
43311;SDS011;30041;48.300;16.352;2023-02-28T08:43:51;1.00;;;0.60;;
43311;SDS011;30041;48.300;16.352;2023-02-28T08:46:17;0.85;;;0.40;;
43311;SDS011;30041;48.300;16.352;2023-02-28T08:48:42;0.60;;;0.40;;
43311;SDS011;30041;48.300;16.352;2023-02-28T08:51:10;0.47;;;0.35;;
43311;SDS011;30041;48.300;16.352;2023-02-28T08:53:40;0.68;;;0.40;;
43311;SDS011;30041;48.300;16.352;2023-02-28T08:56:10;0.85;;;0.40;;
43311;SDS011;30041;48.300;16.352;2023-02-28T08:58:37;0.70;;;0.40;;
43311;SDS011;30041;48.300;16.352;2023-02-28T09:01:11;0.73;;;0.50;;
43311;SDS011;30041;48.300;16.352;2023-02-28T09:03:38;0.80;;;0.45;;
43311;SDS011;30041;48.300;16.352;2023-02-28T09:06:04;2.10;;;0.52;;
43311;SDS011;30041;48.300;16.352;2023-02-28T09:08:30;2.13;;;0.40;;
43311;SDS011;30041;48.300;16.352;2023-02-28T09:10:56;2.65;;;0.50;;
43311;SDS011;30041;48.300;16.352;2023-02-28T09:13:23;2.13;;;0.60;;
43311;SDS011;30041;48.300;16.352;2023-02-28T09:15:50;1.90;;;0.57;;
43311;SDS011;30041;48.300;16.352;2023-02-28T09:18:15;4.85;;;0.52;;
43311;SDS011;30041;48.300;16.352;2023-02-28T09:20:42;4.30;;;0.85;;
43311;SDS011;30041;48.300;16.352;2023-02-28T09:23:08;4.00;;;1.30;;
43311;SDS011;30041;48.300;16.352;2023-02-28T09:25:35;3.15;;;1.38;;
43311;SDS011;30041;48.300;16.352;2023-02-28T09:28:02;3.25;;;1.73;;
43311;SDS011;30041;48.300;16.352;2023-02-28T09:30:28;3.35;;;1.80;;
43311;SDS011;30041;48.300;16.352;2023-02-28T09:32:54;4.72;;;1.50;;
43311;SDS011;30041;48.300;16.352;2023-02-28T09:35:23;3.78;;;1.70;;
43311;SDS011;30041;48.300;16.352;2023-02-28T09:37:49;3.90;;;1.50;;
43311;SDS011;30041;48.300;16.352;2023-02-28T09:40:16;4.03;;;1.50;;
43311;SDS011;30041;48.300;16.352;2023-02-28T09:42:45;12.27;;;2.40;;
43311;SDS011;30041;48.300;16.352;2023-02-28T09:45:19;5.88;;;2.90;;
43311;SDS011;30041;48.300;16.352;2023-02-28T09:47:48;6.60;;;2.88;;
43311;SDS011;30041;48.300;16.352;2023-02-28T09:52:48;4.40;;;3.05;;
43311;SDS011;30041;48.300;16.352;2023-02-28T09:57:40;3.88;;;2.40;;
43311;SDS011;30041;48.300;16.352;2023-02-28T10:02:47;10.15;;;3.28;;
43311;SDS011;30041;48.300;16.352;2023-02-28T10:05:23;9.30;;;3.00;;
43311;SDS011;30041;48.300;16.352;2023-02-28T10:15:58;6.75;;;3.00;;
43311;SDS011;30041;48.300;16.352;2023-02-28T10:18:41;6.88;;;2.40;;
43311;SDS011;30041;48.300;16.352;2023-02-28T10:21:21;3.88;;;2.22;;
43311;SDS011;30041;48.300;16.352;2023-02-28T10:23:52;5.40;;;2.88;;
43311;SDS011;30041;48.300;16.352;2023-02-28T10:26:27;7.70;;;3.10;;
43311;SDS011;30041;48.300;16.352;2023-02-28T10:28:55;12.35;;;3.90;;
43311;SDS011;30041;48.300;16.352;2023-02-28T10:31:21;13.50;;;3.67;;
43311;SDS011;30041;48.300;16.352;2023-02-28T10:33:47;9.52;;;3.30;;
43311;SDS011;30041;48.300;16.352;2023-02-28T10:36:16;8.40;;;3.20;;
43311;SDS011;30041;48.300;16.352;2023-02-28T10:38:44;14.73;;;3.60;;
43311;SDS011;30041;48.300;16.352;2023-02-28T10:41:12;7.95;;;3.70;;
43311;SDS011;30041;48.300;16.352;2023-02-28T10:43:40;8.57;;;3.75;;
43311;SDS011;30041;48.300;16.352;2023-02-28T10:48:37;7.43;;;3.00;;
43311;SDS011;30041;48.300;16.352;2023-02-28T10:51:23;7.70;;;3.13;;
43311;SDS011;30041;48.300;16.352;2023-02-28T10:53:49;9.48;;;3.58;;
43311;SDS011;30041;48.300;16.352;2023-02-28T10:56:18;7.85;;;3.15;;
43311;SDS011;30041;48.300;16.352;2023-02-28T11:01:15;7.90;;;3.10;;
43311;SDS011;30041;48.300;16.352;2023-02-28T11:03:58;5.57;;;3.20;;
43311;SDS011;30041;48.300;16.352;2023-02-28T11:06:25;5.88;;;3.35;;
43311;SDS011;30041;48.300;16.352;2023-02-28T11:08:55;6.10;;;3.47;;
43311;SDS011;30041;48.300;16.352;2023-02-28T11:11:24;5.25;;;2.95;;
43311;SDS011;30041;48.300;16.352;2023-02-28T11:13:53;9.52;;;3.05;;
43311;SDS011;30041;48.300;16.352;2023-02-28T11:16:22;8.32;;;3.22;;
43311;SDS011;30041;48.300;16.352;2023-02-28T11:18:59;7.50;;;3.20;;
43311;SDS011;30041;48.300;16.352;2023-02-28T11:21:29;6.70;;;3.13;;
43311;SDS011;30041;48.300;16.352;2023-02-28T11:26:47;6.65;;;3.10;;
43311;SDS011;30041;48.300;16.352;2023-02-28T11:29:21;7.35;;;3.20;;
43311;SDS011;30041;48.300;16.352;2023-02-28T11:34:38;6.55;;;3.13;;
43311;SDS011;30041;48.300;16.352;2023-02-28T11:37:08;6.57;;;3.25;;
43311;SDS011;30041;48.300;16.352;2023-02-28T11:39:40;4.93;;;2.80;;
43311;SDS011;30041;48.300;16.352;2023-02-28T11:47:47;5.97;;;3.13;;
43311;SDS011;30041;48.300;16.352;2023-02-28T11:50:20;5.60;;;2.83;;
43311;SDS011;30041;48.300;16.352;2023-02-28T11:52:52;5.05;;;2.60;;
43311;SDS011;30041;48.300;16.352;2023-02-28T11:55:35;5.15;;;2.92;;
43311;SDS011;30041;48.300;16.352;2023-02-28T11:58:14;4.22;;;2.92;;
43311;SDS011;30041;48.300;16.352;2023-02-28T12:01:09;5.70;;;2.97;;
43311;SDS011;30041;48.300;16.352;2023-02-28T12:14:46;3.90;;;2.60;;
43311;SDS011;30041;48.300;16.352;2023-02-28T12:20:32;3.78;;;2.80;;
43311;SDS011;30041;48.300;16.352;2023-02-28T12:23:14;4.47;;;2.67;;
43311;SDS011;30041;48.300;16.352;2023-02-28T12:26:14;4.93;;;2.60;;
43311;SDS011;30041;48.300;16.352;2023-02-28T12:32:07;4.65;;;2.90;;
43311;SDS011;30041;48.300;16.352;2023-02-28T12:34:39;3.55;;;2.53;;
43311;SDS011;30041;48.300;16.352;2023-02-28T12:37:10;4.30;;;2.67;;
43311;SDS011;30041;48.300;16.352;2023-02-28T12:39:42;4.00;;;2.60;;
43311;SDS011;30041;48.300;16.352;2023-02-28T12:42:26;3.42;;;2.50;;
43311;SDS011;30041;48.300;16.352;2023-02-28T12:44:59;4.68;;;2.50;;
43311;SDS011;30041;48.300;16.352;2023-02-28T12:47:28;4.85;;;2.85;;
43311;SDS011;30041;48.300;16.352;2023-02-28T12:50:07;4.03;;;2.30;;
43311;SDS011;30041;48.300;16.352;2023-02-28T12:52:49;4.85;;;2.33;;
43311;SDS011;30041;48.300;16.352;2023-02-28T12:58:20;4.97;;;2.50;;
43311;SDS011;30041;48.300;16.352;2023-02-28T13:06:28;3.60;;;2.50;;
43311;SDS011;30041;48.300;16.352;2023-02-28T13:09:37;3.75;;;2.55;;
43311;SDS011;30041;48.300;16.352;2023-02-28T13:12:12;3.55;;;2.63;;
43311;SDS011;30041;48.300;16.352;2023-02-28T13:14:39;3.33;;;2.40;;
43311;SDS011;30041;48.300;16.352;2023-02-28T13:19:37;4.32;;;2.53;;
43311;SDS011;30041;48.300;16.352;2023-02-28T13:24:53;3.67;;;2.35;;
43311;SDS011;30041;48.300;16.352;2023-02-28T13:27:35;7.00;;;2.63;;
43311;SDS011;30041;48.300;16.352;2023-02-28T13:30:59;6.45;;;3.03;;
43311;SDS011;30041;48.300;16.352;2023-02-28T13:33:23;9.18;;;5.55;;
43311;SDS011;30041;48.300;16.352;2023-02-28T13:38:44;5.32;;;3.40;;
43311;SDS011;30041;48.300;16.352;2023-02-28T13:44:09;4.38;;;2.97;;
43311;SDS011;30041;48.300;16.352;2023-02-28T13:49:31;4.13;;;2.60;;
43311;SDS011;30041;48.300;16.352;2023-02-28T13:54:39;3.75;;;2.10;;
43311;SDS011;30041;48.300;16.352;2023-02-28T14:00:18;4.65;;;2.05;;
43311;SDS011;30041;48.300;16.352;2023-02-28T14:05:42;3.22;;;1.85;;
43311;SDS011;30041;48.300;16.352;2023-02-28T14:08:18;3.90;;;1.90;;
43311;SDS011;30041;48.300;16.352;2023-02-28T14:10:50;2.88;;;1.67;;
43311;SDS011;30041;48.300;16.352;2023-02-28T14:13:41;2.20;;;1.50;;
43311;SDS011;30041;48.300;16.352;2023-02-28T14:16:08;4.85;;;1.60;;
43311;SDS011;30041;48.300;16.352;2023-02-28T14:18:36;2.83;;;1.75;;
43311;SDS011;30041;48.300;16.352;2023-02-28T14:37:29;2.33;;;1.60;;
43311;SDS011;30041;48.300;16.352;2023-02-28T14:39:58;3.00;;;1.50;;
43311;SDS011;30041;48.300;16.352;2023-02-28T14:42:29;3.50;;;1.55;;
43311;SDS011;30041;48.300;16.352;2023-02-28T14:45:02;5.40;;;1.50;;
43311;SDS011;30041;48.300;16.352;2023-02-28T14:47:29;3.72;;;1.52;;
43311;SDS011;30041;48.300;16.352;2023-02-28T14:49:58;2.95;;;1.50;;
43311;SDS011;30041;48.300;16.352;2023-02-28T14:52:26;2.63;;;1.40;;
43311;SDS011;30041;48.300;16.352;2023-02-28T14:55:15;2.40;;;1.35;;
43311;SDS011;30041;48.300;16.352;2023-02-28T14:57:42;4.05;;;1.50;;
43311;SDS011;30041;48.300;16.352;2023-02-28T15:00:29;4.03;;;1.30;;
43311;SDS011;30041;48.300;16.352;2023-02-28T15:02:57;2.75;;;1.42;;
43311;SDS011;30041;48.300;16.352;2023-02-28T15:05:25;5.47;;;1.65;;
43311;SDS011;30041;48.300;16.352;2023-02-28T15:13:54;4.93;;;1.92;;
43311;SDS011;30041;48.300;16.352;2023-02-28T15:16:22;4.00;;;2.17;;
43311;SDS011;30041;48.300;16.352;2023-02-28T15:18:59;5.57;;;2.03;;
43311;SDS011;30041;48.300;16.352;2023-02-28T15:21:31;3.92;;;2.00;;
43311;SDS011;30041;48.300;16.352;2023-02-28T15:24:01;6.03;;;2.33;;
43311;SDS011;30041;48.300;16.352;2023-02-28T15:26:39;3.45;;;2.20;;
43311;SDS011;30041;48.300;16.352;2023-02-28T15:29:13;3.20;;;1.88;;
43311;SDS011;30041;48.300;16.352;2023-02-28T15:31:46;3.83;;;2.10;;
43311;SDS011;30041;48.300;16.352;2023-02-28T15:34:22;4.20;;;2.33;;
43311;SDS011;30041;48.300;16.352;2023-02-28T15:36:52;7.43;;;2.30;;
43311;SDS011;30041;48.300;16.352;2023-02-28T15:39:23;7.28;;;2.03;;
43311;SDS011;30041;48.300;16.352;2023-02-28T15:41:50;7.55;;;2.30;;
43311;SDS011;30041;48.300;16.352;2023-02-28T15:44:17;5.65;;;1.98;;
43311;SDS011;30041;48.300;16.352;2023-02-28T15:46:56;4.32;;;1.73;;
43311;SDS011;30041;48.300;16.352;2023-02-28T15:49:27;4.13;;;2.00;;
43311;SDS011;30041;48.300;16.352;2023-02-28T15:51:55;3.97;;;1.88;;
43311;SDS011;30041;48.300;16.352;2023-02-28T15:54:26;6.40;;;1.83;;
43311;SDS011;30041;48.300;16.352;2023-02-28T15:56:55;4.45;;;1.60;;
43311;SDS011;30041;48.300;16.352;2023-02-28T15:59:26;5.43;;;1.80;;
43311;SDS011;30041;48.300;16.352;2023-02-28T16:02:14;3.05;;;1.85;;
43311;SDS011;30041;48.300;16.352;2023-02-28T16:05:01;3.53;;;1.90;;
43311;SDS011;30041;48.300;16.352;2023-02-28T16:07:34;11.52;;;1.80;;
43311;SDS011;30041;48.300;16.352;2023-02-28T16:10:09;6.13;;;1.80;;
43311;SDS011;30041;48.300;16.352;2023-02-28T16:12:37;6.47;;;2.28;;
43311;SDS011;30041;48.300;16.352;2023-02-28T16:15:08;6.05;;;2.03;;
43311;SDS011;30041;48.300;16.352;2023-02-28T16:17:42;4.40;;;1.73;;
43311;SDS011;30041;48.300;16.352;2023-02-28T16:20:14;3.80;;;1.90;;
43311;SDS011;30041;48.300;16.352;2023-02-28T16:22:46;3.17;;;1.80;;
43311;SDS011;30041;48.300;16.352;2023-02-28T16:25:16;5.10;;;1.67;;
43311;SDS011;30041;48.300;16.352;2023-02-28T16:27:47;3.10;;;1.67;;
43311;SDS011;30041;48.300;16.352;2023-02-28T16:30:17;4.47;;;1.63;;
43311;SDS011;30041;48.300;16.352;2023-02-28T16:32:45;4.85;;;1.77;;
43311;SDS011;30041;48.300;16.352;2023-02-28T16:35:11;2.65;;;1.95;;
43311;SDS011;30041;48.300;16.352;2023-02-28T16:37:40;2.55;;;1.50;;
43311;SDS011;30041;48.300;16.352;2023-02-28T16:40:06;2.67;;;1.65;;
43311;SDS011;30041;48.300;16.352;2023-02-28T16:42:38;2.95;;;1.50;;
43311;SDS011;30041;48.300;16.352;2023-02-28T16:45:04;3.10;;;1.48;;
43311;SDS011;30041;48.300;16.352;2023-02-28T16:47:30;2.95;;;1.90;;
43311;SDS011;30041;48.300;16.352;2023-02-28T16:49:55;2.58;;;1.95;;
43311;SDS011;30041;48.300;16.352;2023-02-28T16:52:20;3.30;;;1.90;;
43311;SDS011;30041;48.300;16.352;2023-02-28T16:54:46;3.00;;;1.77;;
43311;SDS011;30041;48.300;16.352;2023-02-28T16:57:21;3.50;;;1.75;;